Ana Sayfa
METAR-TAF:

METAR-TAF

Havaalanları :

Lancaster Airport

Lancaster, Teksas, Amerika Birleşik Devletleri

Enlem: 32-34-45N, Boylam: 096-43-08W, yükseklik: 153 m

Güncel hava durumu gözlemi

Rapor saat 15:55 UTC de 27 dakika önce yapıldı.
Rüzgar güneydan 10 kt
Sıcaklık 31°C
Nem 71%
Basınç 1015 hPa
Görüş mesafesi: 16.1 km
2600 ft yükseklikte parçalı bulutlu
3500 ft yükseklikte parçalı bulutlu

METAR: KLNC 251555Z AUTO 17010KT 10SM SCT026 SCT035 31/25 A2996 RMK AO2 T03140247

Saat: 11:22 (16:22 UTC)


TAF: eksik

4.000'den fazla havaalanı için hava durumu gözlemleri ve tahminleri (METAR ve TAF raporları).

Kullanılabilir istasyonlar harita üzerinde sarı ve kırmızı noktalarla gösterilir.

İstasyonun adını görmek için fareyi noktanın üzerinde gezdirin.

Sonrasında hava gözlem ve tahminlerini görmek için tıklayın.

Haritayı değiştirmek için: yaklaştırmak için siyah artı işaretli yeşil düğmeye ve uzaklaştırmak için de eksi işaretli düğmeye hızla tıklayın; bitişik haritalar için yeşil okları kullanın.


METAR-TAF: